Time;durP1;ratioP1;P1;durP2;ratioP2;P2;SDS_P1;SDS_P2;PMS_P1;PMS_P2;Temp;Humidity;BMP_temperature;BMP_pressure;BME280_temperature;BME280_humidity;BME280_pressure;Samples;Min_cycle;Max_cycle;Signal;HPM_P1;HPM_P2
2021/11/16 00:02:16;;;;;;;;;26.00;23.50;;;;;10.36;65.06;101960.88;4959292;28;45205;-47
2021/11/16 00:04:42;;;;;;;;;15.00;11.75;;;;;10.35;65.04;101959.06;4958358;28;45193;-46
2021/11/16 00:07:09;;;;;;;;;26.00;19.75;;;;;10.35;65.00;101964.31;4959076;28;46084;-50
2021/11/16 00:09:34;;;;;;;;;22.75;20.50;;;;;10.33;64.84;101959.06;4959052;28;45328;-49
2021/11/16 00:12:00;;;;;;;;;20.25;17.50;;;;;10.32;64.76;101945.91;4959018;28;45468;-47
2021/11/16 00:14:27;;;;;;;;;24.25;19.00;;;;;10.33;65.08;101947.69;4959366;28;45319;-46
2021/11/16 00:16:52;;;;;;;;;22.50;18.00;;;;;10.34;64.84;101949.41;4958845;28;46168;-49
2021/11/16 00:19:17;;;;;;;;;18.25;16.50;;;;;10.29;65.01;101941.53;4959607;28;45339;-47
2021/11/16 00:21:44;;;;;;;;;20.00;14.75;;;;;10.34;65.04;101945.06;4972120;28;45315;-50
2021/11/16 00:24:14;;;;;;;;;18.25;16.25;;;;;10.32;64.85;101946.78;4958935;28;45272;-48
2021/11/16 00:26:41;;;;;;;;;16.25;16.25;;;;;10.35;65.01;101941.56;4957441;28;46999;-47
2021/11/16 00:29:06;;;;;;;;;22.50;19.25;;;;;10.33;64.91;101935.41;4958882;28;45411;-47
2021/11/16 00:31:32;;;;;;;;;17.75;17.00;;;;;10.33;64.80;101935.41;4959004;28;45297;-51
2021/11/16 00:33:59;;;;;;;;;18.00;17.00;;;;;10.32;64.71;101925.78;4958952;28;45532;-50
2021/11/16 00:36:24;;;;;;;;;23.25;18.25;;;;;10.32;64.94;101925.78;4958841;28;46095;-48
2021/11/16 00:38:50;;;;;;;;;17.50;13.25;;;;;10.32;64.72;101928.41;4958655;28;45242;-49
2021/11/16 00:41:16;;;;;;;;;24.00;18.75;;;;;10.31;64.89;101921.38;4957678;28;45257;-48
2021/11/16 00:43:41;;;;;;;;;22.50;18.25;;;;;10.30;65.04;101919.66;4958728;28;45297;-47
2021/11/16 00:46:08;;;;;;;;;22.50;15.25;;;;;10.31;64.79;101918.75;4970030;28;46174;-50
2021/11/16 00:48:34;;;;;;;;;23.50;17.25;;;;;10.32;64.83;101917.03;4989336;28;45328;-49
2021/11/16 00:51:03;;;;;;;;;16.50;15.00;;;;;10.31;64.77;101905.63;4982482;27;45421;-50
2021/11/16 00:53:31;;;;;;;;;27.50;20.50;;;;;10.31;64.62;101908.25;4968634;28;45602;-47
2021/11/16 00:55:59;;;;;;;;;23.25;19.00;;;;;10.32;64.70;101906.50;4958232;28;46251;-50
2021/11/16 00:58:24;;;;;;;;;23.25;17.00;;;;;10.31;64.63;101905.63;4973632;27;45330;-49
2021/11/16 01:00:50;;;;;;;;;21.00;18.25;;;;;10.31;64.90;101907.38;4958341;28;45631;-49
2021/11/16 01:03:17;;;;;;;;;24.50;19.50;;;;;10.31;64.88;101907.38;4958500;28;45497;-51
2021/11/16 01:05:44;;;;;;;;;24.00;18.50;;;;;10.30;64.77;101900.34;4957175;28;47345;-51
2021/11/16 01:08:09;;;;;;;;;17.50;15.50;;;;;10.30;64.71;101903.88;4958411;28;45510;-51
2021/11/16 01:10:38;;;;;;;;;23.75;19.00;;;;;10.28;64.67;101900.34;4958185;28;45239;-51
2021/11/16 01:13:03;;;;;;;;;20.50;18.00;;;;;10.30;64.82;101893.38;4958528;28;45301;-48
2021/11/16 01:15:30;;;;;;;;;24.25;19.75;;;;;10.29;64.76;101891.59;4957939;28;46210;-47
2021/11/16 01:17:55;;;;;;;;;28.75;22.50;;;;;10.29;64.59;101894.25;4958534;28;45427;-51
2021/11/16 01:20:22;;;;;;;;;20.50;17.00;;;;;10.27;64.75;101890.72;4962523;28;45372;-48
2021/11/16 01:22:53;;;;;;;;;22.75;19.00;;;;;10.29;64.77;101890.72;4973475;28;45469;-51
2021/11/16 01:25:20;;;;;;;;;25.00;17.25;;;;;10.28;64.73;101892.47;4975475;28;45693;-46
2021/11/16 01:27:46;;;;;;;;;22.00;18.25;;;;;10.27;64.80;101890.72;4977524;28;45504;-45
2021/11/16 01:30:16;;;;;;;;;25.00;19.00;;;;;10.28;64.84;101883.72;4977591;28;45405;-47
2021/11/16 01:32:46;;;;;;;;;25.25;17.50;;;;;10.24;64.89;101882.81;4977633;28;45486;-46
2021/11/16 01:35:12;;;;;;;;;23.50;18.25;;;;;10.24;64.84;101891.56;4977157;28;46217;-49
2021/11/16 01:37:39;;;;;;;;;26.00;21.00;;;;;10.23;65.04;101889.81;4977653;28;45376;-51
2021/11/16 01:40:09;;;;;;;;;26.25;19.75;;;;;10.25;64.92;101895.06;4958203;28;45316;-49
2021/11/16 01:42:34;;;;;;;;;23.75;18.75;;;;;10.24;64.67;101893.34;4970980;28;45397;-46
2021/11/16 01:45:00;;;;;;;;;29.50;22.50;;;;;10.24;64.92;101895.97;4956568;28;46002;-50
2021/11/16 01:47:26;;;;;;;;;23.00;17.00;;;;;10.23;64.73;101887.19;4957834;28;45485;-47
2021/11/16 01:49:52;;;;;;;;;27.50;19.00;;;;;10.24;64.96;101893.34;5011381;28;45486;-50
2021/11/16 01:52:17;;;;;;;;;16.50;15.75;;;;;10.23;64.69;101896.81;4969831;28;45256;-48
2021/11/16 01:54:43;;;;;;;;;26.25;24.25;;;;;10.21;64.75;101888.94;4958333;28;45372;-48
2021/11/16 01:57:09;;;;;;;;;21.50;20.25;;;;;10.22;64.90;101884.56;4957868;28;45255;-47
2021/11/16 01:59:34;;;;;;;;;23.75;18.25;;;;;10.20;64.70;101891.53;4958021;28;45493;-50
2021/11/16 02:02:01;;;;;;;;;21.00;16.00;;;;;10.22;64.75;101889.81;4957763;28;45308;-47
2021/11/16 02:04:26;;;;;;;;;22.50;21.00;;;;;10.19;64.83;101885.41;4957531;28;46947;-50
2021/11/16 02:06:52;;;;;;;;;19.00;14.25;;;;;10.21;64.78;101888.94;4957722;28;45379;-46
2021/11/16 02:09:18;;;;;;;;;27.75;20.00;;;;;10.21;64.96;101891.56;4957592;28;45220;-47
2021/11/16 02:11:45;;;;;;;;;20.50;16.50;;;;;10.22;64.98;101884.56;4957659;28;45482;-47
2021/11/16 02:14:14;;;;;;;;;19.75;17.25;;;;;10.18;64.97;101877.53;4957285;28;45371;-47
2021/11/16 02:16:41;;;;;;;;;22.00;16.25;;;;;10.19;64.98;101885.41;4957502;28;45263;-50
2021/11/16 02:19:10;;;;;;;;;23.00;19.25;;;;;10.19;65.10;101885.41;4976037;28;45231;-48
2021/11/16 02:21:36;;;;;;;;;22.25;17.50;;;;;10.19;64.84;101881.94;4988519;28;45359;-49
2021/11/16 02:24:03;;;;;;;;;14.75;12.25;;;;;10.17;65.06;101876.63;4972290;28;46272;-47
2021/11/16 02:26:29;;;;;;;;;22.50;18.25;;;;;10.18;64.90;101880.16;4957143;28;45306;-47
2021/11/16 02:28:55;;;;;;;;;20.50;16.00;;;;;10.17;64.74;101875.78;4960267;28;45328;-46
2021/11/16 02:31:22;;;;;;;;;18.00;15.50;;;;;10.16;64.86;101882.78;4960098;28;45204;-51
2021/11/16 02:33:47;;;;;;;;;24.25;17.75;;;;;10.17;64.93;101881.03;4959268;28;46142;-49
2021/11/16 02:36:13;;;;;;;;;25.00;20.25;;;;;10.14;64.89;101871.38;4960297;28;45204;-49
2021/11/16 02:38:41;;;;;;;;;21.75;19.00;;;;;10.17;65.00;101873.16;4959141;28;45257;-49
2021/11/16 02:41:07;;;;;;;;;16.00;14.50;;;;;10.16;65.05;101876.63;4972621;28;45644;-48
2021/11/16 02:43:35;;;;;;;;;20.50;15.50;;;;;10.16;64.94;101866.13;4970863;28;46975;-50
2021/11/16 02:46:02;;;;;;;;;21.75;17.75;;;;;10.16;64.87;101879.25;4988728;28;45163;-51
2021/11/16 02:48:28;;;;;;;;;23.25;20.25;;;;;10.15;65.09;101880.13;4995603;28;45233;-45
2021/11/16 02:51:01;;;;;;;;;21.75;16.50;;;;;10.15;64.90;101882.75;4986163;27;45486;-46
2021/11/16 02:53:27;;;;;;;;;24.00;15.00;;;;;10.14;64.94;101876.63;4971377;28;46268;-48
2021/11/16 02:55:53;;;;;;;;;15.50;13.25;;;;;10.11;65.11;101873.97;4959868;28;45466;-47
2021/11/16 02:58:20;;;;;;;;;19.50;19.50;;;;;10.13;65.07;101879.25;4960135;28;45269;-47
2021/11/16 03:00:50;;;;;;;;;23.75;20.75;;;;;10.08;64.91;101872.22;4959781;28;45362;-46
2021/11/16 03:03:17;;;;;;;;;29.25;21.75;;;;;10.10;64.86;101874.88;4959878;28;47161;-47
2021/11/16 03:05:43;;;;;;;;;24.25;16.50;;;;;10.13;64.89;101879.25;4959866;28;45226;-49
2021/11/16 03:08:21;;;;;;;;;26.25;19.00;;;;;10.13;65.09;101876.63;4960049;28;45239;-49
2021/11/16 03:10:46;;;;;;;;;23.25;17.00;;;;;10.12;65.13;101872.25;4959607;28;45407;-46
2021/11/16 03:13:13;;;;;;;;;20.00;16.75;;;;;10.12;64.97;101872.25;4959673;28;45826;-49
2021/11/16 03:15:41;;;;;;;;;18.25;16.25;;;;;10.11;65.06;101865.22;4959788;28;45345;-48
2021/11/16 03:18:07;;;;;;;;;15.25;15.00;;;;;10.09;65.29;101871.34;4959934;28;45461;-50
2021/11/16 03:20:32;;;;;;;;;20.25;17.00;;;;;10.10;65.05;101869.63;4965212;28;45328;-51
2021/11/16 03:23:08;;;;;;;;;21.00;15.50;;;;;10.10;65.11;101872.25;4967443;28;45336;-48
2021/11/16 03:25:38;;;;;;;;;16.75;15.25;;;;;10.09;65.17;101870.47;4966270;28;45432;-51
2021/11/16 03:28:07;;;;;;;;;22.25;17.75;;;;;10.09;65.01;101873.09;4965383;28;45385;-51
2021/11/16 03:30:34;;;;;;;;;20.75;15.25;;;;;10.05;65.21;101861.69;4959647;28;45443;-50
2021/11/16 03:32:59;;;;;;;;;16.75;15.50;;;;;10.07;65.13;101864.34;4959423;28;46200;-48
2021/11/16 03:35:25;;;;;;;;;27.25;18.00;;;;;10.07;65.23;101869.59;4959798;28;45501;-47
2021/11/16 03:37:54;;;;;;;;;16.25;14.50;;;;;10.06;65.00;101860.84;4959608;28;45311;-48
2021/11/16 03:40:22;;;;;;;;;22.00;18.00;;;;;10.07;65.18;101861.69;4958377;28;45394;-50
2021/11/16 03:42:50;;;;;;;;;17.50;16.00;;;;;10.05;65.01;101864.31;4959285;28;46278;-51
2021/11/16 03:45:17;;;;;;;;;17.00;14.00;;;;;10.06;65.03;101859.94;4959358;28;45432;-50
2021/11/16 03:47:43;;;;;;;;;15.00;13.25;;;;;10.06;65.33;101858.22;4974026;28;45324;-51
2021/11/16 03:50:12;;;;;;;;;18.50;15.50;;;;;10.04;65.17;101862.56;5010290;28;45318;-51
2021/11/16 03:52:41;;;;;;;;;22.25;20.00;;;;;10.05;65.20;101866.97;4972330;28;46126;-51
2021/11/16 03:55:08;;;;;;;;;20.25;16.75;;;;;10.05;64.93;101860.81;4959081;28;45392;-51
2021/11/16 03:57:35;;;;;;;;;21.75;14.50;;;;;10.04;65.01;101864.31;4959280;28;45573;-49
2021/11/16 04:00:03;;;;;;;;;17.00;15.00;;;;;10.02;65.20;101866.91;4959431;28;45250;-50
2021/11/16 04:02:29;;;;;;;;;21.00;18.50;;;;;10.02;65.15;101876.56;4973195;28;46030;-45
2021/11/16 04:04:55;;;;;;;;;20.50;13.25;;;;;10.01;64.89;101869.53;4969105;28;45430;-48
2021/11/16 04:07:21;;;;;;;;;22.75;16.75;;;;;10.00;64.86;101871.31;4958020;28;45572;-47
2021/11/16 04:09:46;;;;;;;;;20.25;15.00;;;;;10.00;64.99;101868.69;4959060;28;45456;-49
2021/11/16 04:12:12;;;;;;;;;25.25;18.50;;;;;9.99;65.11;101868.69;4958974;28;45431;-50
2021/11/16 04:14:37;;;;;;;;;23.50;17.25;;;;;9.98;65.14;101859.03;4959380;28;45490;-49
2021/11/16 04:17:03;;;;;;;;;14.75;14.50;;;;;9.98;65.07;101864.28;4959094;28;45321;-48
2021/11/16 04:19:28;;;;;;;;;19.25;19.00;;;;;9.96;64.83;101861.66;4959716;28;45555;-47
2021/11/16 04:21:54;;;;;;;;;17.25;13.25;;;;;9.96;64.95;101864.28;4971770;28;46129;-48
2021/11/16 04:24:19;;;;;;;;;15.50;13.75;;;;;9.96;64.97;101869.53;4959082;28;45363;-48
2021/11/16 04:26:45;;;;;;;;;19.00;15.00;;;;;9.95;65.02;101867.78;4959118;28;45342;-49
2021/11/16 04:29:10;;;;;;;;;18.50;15.75;;;;;9.95;64.90;101864.25;4958964;28;45528;-46
2021/11/16 04:31:36;;;;;;;;;22.25;15.00;;;;;9.94;65.10;101858.13;4958889;28;45494;-47
2021/11/16 04:34:03;;;;;;;;;19.75;14.00;;;;;9.92;65.03;101859.88;4957746;28;45308;-46
2021/11/16 04:36:28;;;;;;;;;19.50;16.00;;;;;9.94;64.88;101863.38;4959062;28;45287;-49
2021/11/16 04:38:54;;;;;;;;;20.50;14.25;;;;;9.93;64.92;101865.13;4958702;28;45257;-47
2021/11/16 04:41:19;;;;;;;;;17.50;15.00;;;;;9.94;65.08;101863.38;4958806;28;45301;-47
2021/11/16 04:43:44;;;;;;;;;19.50;15.00;;;;;9.94;65.15;101860.75;4958652;28;45162;-48
2021/11/16 04:46:13;;;;;;;;;15.25;14.75;;;;;9.93;64.92;101865.13;4957634;28;45352;-46
2021/11/16 04:49:42;;;;;;;;;19.75;14.50;;;;;9.90;65.15;101867.72;5008536;28;45461;-47
2021/11/16 05:04:52;;;;;;;;;20.25;17.00;;;;;9.90;64.92;101873.00;4967359;28;45339;-48
2021/11/16 05:07:21;;;;;;;;;18.00;13.75;;;;;9.91;65.15;101876.47;4962581;28;45244;-47
2021/11/16 05:09:52;;;;;;;;;14.75;13.25;;;;;9.90;65.20;101872.13;4958195;28;45399;-48
2021/11/16 05:12:18;;;;;;;;;20.75;17.25;;;;;9.92;64.85;101876.50;4958166;28;46279;-49
2021/11/16 05:14:44;;;;;;;;;16.00;13.25;;;;;9.92;64.90;101876.50;4979064;28;45228;-46
2021/11/16 05:17:10;;;;;;;;;23.25;16.25;;;;;9.90;65.08;101866.88;4976290;28;45236;-47
2021/11/16 05:19:36;;;;;;;;;16.75;16.00;;;;;9.94;65.11;101873.88;4958914;28;45454;-49
2021/11/16 05:22:02;;;;;;;;;21.25;15.00;;;;;9.92;64.88;101867.75;4971123;28;46228;-47
2021/11/16 05:24:27;;;;;;;;;20.50;16.00;;;;;9.92;64.91;101868.63;4958114;28;45277;-47
2021/11/16 05:26:53;;;;;;;;;30.75;29.00;;;;;9.93;65.03;101861.63;4958142;28;45544;-45
2021/11/16 05:29:19;;;;;;;;;51.00;39.25;;;;;9.93;65.12;101869.50;4958381;28;45548;-47
2021/11/16 05:31:45;;;;;;;;;17.25;14.25;;;;;9.94;65.03;101873.88;4958146;28;46059;-47
2021/11/16 05:34:10;;;;;;;;;19.50;17.25;;;;;9.93;64.85;101873.00;4980180;28;45293;-47
2021/11/16 05:36:36;;;;;;;;;23.50;17.00;;;;;9.93;64.76;101874.75;4975498;28;45324;-48
2021/11/16 05:39:03;;;;;;;;;16.00;13.25;;;;;9.86;65.08;101863.34;4958149;28;45345;-48
2021/11/16 05:41:28;;;;;;;;;24.00;15.25;;;;;9.95;64.87;101880.91;4957947;28;46111;-50
2021/11/16 05:43:54;;;;;;;;;17.25;15.75;;;;;9.94;64.99;101881.78;4957984;28;45164;-46
2021/11/16 05:46:23;;;;;;;;;16.00;15.25;;;;;9.93;64.85;101878.25;4958159;28;45316;-48
2021/11/16 05:48:50;;;;;;;;;20.00;15.50;;;;;9.93;64.96;101880.00;5001022;28;45344;-49
2021/11/16 05:51:16;;;;;;;;;21.75;17.00;;;;;9.93;64.85;101877.38;4970340;27;46523;-47
2021/11/16 05:53:45;;;;;;;;;24.75;19.75;;;;;9.92;64.96;101878.25;4967193;28;45261;-45
2021/11/16 05:56:10;;;;;;;;;21.75;20.75;;;;;9.94;64.83;101887.03;4957906;28;45386;-47
2021/11/16 05:58:39;;;;;;;;;24.00;18.00;;;;;9.94;64.79;101879.13;4956387;28;45400;-48
2021/11/16 06:01:05;;;;;;;;;17.75;15.00;;;;;9.95;64.82;101882.63;4957592;28;46423;-47
2021/11/16 06:03:30;;;;;;;;;22.25;17.25;;;;;9.94;64.97;101881.78;4959907;28;45218;-48
2021/11/16 06:05:55;;;;;;;;;25.75;21.25;;;;;9.93;64.83;101886.13;4968971;28;45305;-45
2021/11/16 06:08:26;;;;;;;;;21.75;18.75;;;;;9.93;65.08;101896.63;4989292;28;45295;-48
2021/11/16 06:10:53;;;;;;;;;25.00;18.25;;;;;9.93;64.95;101891.38;4971624;28;46207;-48
2021/11/16 06:13:19;;;;;;;;;21.50;17.50;;;;;9.94;64.74;101889.66;4987752;28;45377;-49
2021/11/16 06:15:44;;;;;;;;;23.50;21.00;;;;;9.88;64.84;101879.09;4961832;28;45216;-44
2021/11/16 06:18:10;;;;;;;;;22.50;16.25;;;;;9.96;64.88;101887.91;4960616;28;45521;-46
2021/11/16 06:20:39;;;;;;;;;26.50;18.50;;;;;9.95;64.80;101891.41;4966220;28;46285;-46
2021/11/16 06:23:05;;;;;;;;;24.00;20.25;;;;;9.93;64.74;101896.63;4966442;28;45725;-47
2021/11/16 06:25:31;;;;;;;;;30.75;23.50;;;;;9.97;64.73;101900.16;4972505;28;45311;-47
2021/11/16 06:27:56;;;;;;;;;26.00;20.50;;;;;9.94;64.73;101894.91;4986605;28;45509;-47
2021/11/16 06:30:22;;;;;;;;;24.00;17.50;;;;;9.95;64.72;101887.88;4960394;28;45351;-47
2021/11/16 06:32:47;;;;;;;;;25.75;21.50;;;;;9.97;64.77;101892.28;4960528;28;45247;-50
2021/11/16 06:35:18;;;;;;;;;28.50;20.50;;;;;9.99;64.70;101902.81;4959690;28;45308;-45
2021/11/16 06:37:46;;;;;;;;;24.00;21.50;;;;;9.98;64.70;101901.91;4960364;28;46590;-50
2021/11/16 06:40:12;;;;;;;;;25.25;20.00;;;;;9.96;64.80;101906.31;4959994;28;46030;-51
2021/11/16 06:42:38;;;;;;;;;17.25;14.50;;;;;9.98;64.80;101901.91;4959804;28;45335;-49
2021/11/16 06:45:04;;;;;;;;;30.25;22.75;;;;;9.98;64.62;101901.91;4960372;28;45437;-49
2021/11/16 06:47:29;;;;;;;;;28.50;22.50;;;;;10.00;64.70;101907.16;4960026;28;45525;-50
2021/11/16 06:49:55;;;;;;;;;26.75;22.25;;;;;9.99;64.85;101902.81;5012972;28;45988;-47
2021/11/16 06:52:20;;;;;;;;;24.50;21.75;;;;;9.99;64.88;101906.31;4972125;28;45365;-45
2021/11/16 06:54:46;;;;;;;;;27.50;22.75;;;;;10.00;64.66;101894.03;4960583;28;45166;-42
2021/11/16 06:57:12;;;;;;;;;24.25;20.00;;;;;10.02;64.75;101895.81;4959852;28;45259;-44
2021/11/16 06:59:39;;;;;;;;;29.75;23.00;;;;;10.03;64.72;101902.81;4959851;28;45281;-44
2021/11/16 07:02:05;;;;;;;;;26.00;19.75;;;;;10.04;64.67;101901.97;4959834;28;45380;-43
2021/11/16 07:04:39;;;;;;;;;26.50;22.00;;;;;10.03;64.66;101908.06;4959999;28;45351;-43
2021/11/16 07:07:05;;;;;;;;;18.50;16.25;;;;;10.04;64.87;101899.34;4970151;28;45522;-47
2021/11/16 07:09:40;;;;;;;;;23.50;21.50;;;;;10.05;64.90;101913.34;4974539;28;48561;-46
2021/11/16 07:12:18;;;;;;;;;22.50;17.75;;;;;10.04;64.68;101896.72;4959632;28;45285;-47
2021/11/16 07:14:44;;;;;;;;;23.75;22.75;;;;;10.03;64.67;101899.34;4959726;28;45379;-43
2021/11/16 07:17:12;;;;;;;;;29.25;23.00;;;;;10.04;64.72;101898.47;4959660;28;45485;-44
2021/11/16 07:19:42;;;;;;;;;23.00;19.25;;;;;10.06;64.95;101896.72;4960090;28;46398;-44
2021/11/16 07:22:23;;;;;;;;;22.50;19.75;;;;;10.05;64.79;101898.47;4971121;28;45505;-43
2021/11/16 07:25:02;;;;;;;;;26.00;21.50;;;;;10.05;64.70;101911.59;4958150;28;45233;-45
2021/11/16 07:27:39;;;;;;;;;21.00;17.50;;;;;10.06;64.59;101899.34;4959461;28;45386;-43
2021/11/16 07:30:09;;;;;;;;;27.00;21.75;;;;;10.05;64.59;101895.84;4959306;28;45975;-42
2021/11/16 07:32:49;;;;;;;;;20.50;18.75;;;;;10.06;64.81;101904.59;4959499;28;45292;-42
2021/11/16 07:35:18;;;;;;;;;22.75;19.75;;;;;10.06;64.82;101901.97;4966482;28;45323;-42
2021/11/16 07:37:47;;;;;;;;;23.75;20.25;;;;;10.05;64.86;101903.72;4965024;28;45253;-42
2021/11/16 07:40:19;;;;;;;;;23.50;18.75;;;;;10.05;64.71;101911.59;4959290;28;45379;-41
2021/11/16 07:42:54;;;;;;;;;25.25;22.50;;;;;10.05;64.82;101902.81;4959201;28;45424;-41
2021/11/16 07:45:21;;;;;;;;;22.50;20.00;;;;;10.05;64.77;101908.06;4959555;28;45404;-41
2021/11/16 07:47:47;;;;;;;;;26.50;22.50;;;;;10.07;64.56;101917.75;4959170;28;45532;-42
2021/11/16 07:50:20;;;;;;;;;21.00;17.75;;;;;10.06;64.51;101913.38;4972604;28;46052;-41
2021/11/16 07:52:47;;;;;;;;;33.25;23.50;;;;;10.06;64.74;101916.00;4972456;28;45354;-41
2021/11/16 07:55:26;;;;;;;;;26.25;20.25;;;;;10.07;64.47;101917.75;4959185;28;45346;-42
2021/11/16 07:57:53;;;;;;;;;19.75;18.25;;;;;10.08;64.55;101924.75;4959043;28;45396;-41
2021/11/16 08:00:25;;;;;;;;;25.75;21.50;;;;;10.10;64.54;101924.78;4959177;28;46104;-41
2021/11/16 08:02:57;;;;;;;;;27.50;24.00;;;;;10.09;64.55;101913.38;4958987;28;45446;-42
2021/11/16 08:05:38;;;;;;;;;24.75;21.75;;;;;10.10;64.53;101922.16;4959200;28;45296;-41
2021/11/16 08:11:19;;;;;;;;;31.25;26.50;;;;;10.10;64.46;101914.28;4996351;28;45406;-41
2021/11/16 08:14:05;;;;;;;;;29.50;22.25;;;;;10.12;64.63;101914.28;4980968;28;45447;-41
2021/11/16 08:16:32;;;;;;;;;28.50;20.50;;;;;10.11;64.63;101913.38;4957983;28;45403;-41
2021/11/16 08:19:07;;;;;;;;;26.50;22.25;;;;;10.12;64.53;101919.53;4959008;28;45622;-41
2021/11/16 08:21:35;;;;;;;;;28.25;22.75;;;;;10.11;64.51;101912.50;4971737;28;45413;-41
2021/11/16 08:24:14;;;;;;;;;29.50;23.75;;;;;10.14;64.51;101912.50;4978263;28;45244;-41
2021/11/16 08:26:48;;;;;;;;;25.25;21.75;;;;;10.14;64.48;101909.88;4962811;28;45227;-41
2021/11/16 08:29:22;;;;;;;;;26.50;22.50;;;;;10.14;64.32;101909.88;4958712;28;45474;-41
2021/11/16 08:32:11;;;;;;;;;26.75;25.00;;;;;10.15;64.46;101907.28;4958678;28;45295;-41
2021/11/16 08:34:44;;;;;;;;;41.00;32.50;;;;;10.16;64.37;101898.56;4958653;28;45367;-41
2021/11/16 08:37:12;;;;;;;;;28.00;24.25;;;;;10.18;64.60;101906.44;4959011;28;45289;-41
2021/11/16 08:39:52;;;;;;;;;25.50;22.75;;;;;10.17;64.56;101902.03;4958475;28;45482;-40
2021/11/16 08:42:51;;;;;;;;;26.00;23.50;;;;;10.18;64.40;101909.94;4958570;28;45268;-41
2021/11/16 08:45:22;;;;;;;;;33.25;22.75;;;;;10.19;64.40;101900.31;4978107;28;45307;-41
2021/11/16 08:48:07;;;;;;;;;28.25;23.00;;;;;10.20;64.46;101908.19;4961962;28;45313;-41
2021/11/16 08:50:46;;;;;;;;;26.25;24.25;;;;;10.21;64.53;101903.81;4967309;28;45230;-41
2021/11/16 08:53:15;;;;;;;;;25.25;22.50;;;;;10.23;64.30;101907.34;4956991;28;47215;-41
2021/11/16 08:55:42;;;;;;;;;28.75;27.00;;;;;10.21;64.25;101902.09;4971428;28;45324;-41
2021/11/16 08:58:13;;;;;;;;;29.00;25.00;;;;;10.25;64.33;101905.56;4958983;28;45816;-41
2021/11/16 09:00:51;;;;;;;;;24.75;23.00;;;;;10.26;64.27;101896.84;4958441;28;45268;-42
2021/11/16 09:03:25;;;;;;;;;24.75;19.50;;;;;10.27;64.45;101893.34;4957095;28;46052;-41
2021/11/16 09:05:51;;;;;;;;;26.75;22.25;;;;;10.27;64.45;101888.09;4991695;28;45607;-41
2021/11/16 09:08:26;;;;;;;;;22.25;17.25;;;;;10.28;64.49;101884.59;5015079;27;45365;-41
2021/11/16 09:10:55;;;;;;;;;29.00;25.00;;;;;10.31;64.35;101883.72;4959241;28;45399;-41
2021/11/16 09:13:24;;;;;;;;;28.00;22.00;;;;;10.31;64.24;101879.34;4958193;28;45426;-42
2021/11/16 09:15:55;;;;;;;;;29.75;24.50;;;;;10.35;64.32;101885.50;4964909;28;45297;-41
2021/11/16 09:18:30;;;;;;;;;23.75;22.25;;;;;10.34;64.54;101884.63;4964267;28;45370;-41
2021/11/16 09:21:07;;;;;;;;;27.00;22.50;;;;;10.37;64.70;101889.06;4958553;28;45596;-41
2021/11/16 09:23:36;;;;;;;;;27.25;23.00;;;;;10.38;64.19;101882.94;4961796;28;46294;-40
2021/11/16 09:26:18;;;;;;;;;28.00;25.25;;;;;10.42;64.39;101886.47;4977638;28;45375;-40
2021/11/16 09:28:47;;;;;;;;;29.25;21.50;;;;;10.44;64.49;101874.19;4977721;28;45387;-41
2021/11/16 09:31:19;;;;;;;;;25.25;23.75;;;;;10.46;64.34;101880.34;4976120;28;45470;-40
2021/11/16 09:33:44;;;;;;;;;22.50;19.25;;;;;10.49;64.36;101881.22;4977599;28;46099;-41
2021/11/16 09:36:10;;;;;;;;;23.75;20.50;;;;;10.51;64.28;101870.72;4977390;28;45295;-40
2021/11/16 09:38:42;;;;;;;;;23.75;17.25;;;;;10.53;64.25;101871.63;4969566;28;45304;-41
2021/11/16 09:41:13;;;;;;;;;23.25;17.00;;;;;10.53;64.17;101868.97;4960428;28;45348;-41
2021/11/16 09:43:39;;;;;;;;;28.75;20.50;;;;;10.56;64.24;101869.88;4967466;27;45310;-41
2021/11/16 09:46:08;;;;;;;;;20.00;18.75;;;;;10.59;64.29;101873.38;4957860;28;45256;-40
2021/11/16 09:48:36;;;;;;;;;19.00;17.00;;;;;10.60;64.22;101870.75;4988921;28;45386;-40
2021/11/16 09:51:13;;;;;;;;;16.25;13.75;;;;;10.60;64.19;101875.13;4975504;27;45517;-40
2021/11/16 09:53:38;;;;;;;;;23.00;21.00;;;;;10.63;64.18;101878.66;4967596;28;46342;-40
2021/11/16 09:56:16;;;;;;;;;24.50;21.00;;;;;10.65;64.09;101878.66;4956501;28;45339;-41
2021/11/16 09:58:43;;;;;;;;;25.50;20.00;;;;;10.67;64.40;101874.28;4958055;28;45434;-41
2021/11/16 10:01:08;;;;;;;;;16.00;13.75;;;;;10.71;64.13;101873.41;4988371;28;45398;-41
2021/11/16 10:03:34;;;;;;;;;14.00;8.25;;;;;10.72;64.18;101870.78;4966123;28;46703;-41
2021/11/16 10:06:00;;;;;;;;;14.75;12.50;;;;;10.72;64.26;101865.53;4957711;28;45372;-41
2021/11/16 10:08:27;;;;;;;;;20.25;16.75;;;;;10.75;64.06;101864.66;4957800;28;45367;-41
2021/11/16 10:10:56;;;;;;;;;28.00;19.00;;;;;10.76;64.08;101865.56;4957488;28;45319;-41
2021/11/16 10:13:29;;;;;;;;;26.00;20.50;;;;;10.78;64.04;101861.16;4957494;28;46073;-41
2021/11/16 10:15:58;;;;;;;;;26.25;20.75;;;;;10.79;64.03;101868.19;4977099;28;45336;-41
2021/11/16 10:18:27;;;;;;;;;24.25;19.00;;;;;10.82;63.93;101869.06;4963617;28;45366;-41
2021/11/16 10:20:53;;;;;;;;;27.00;24.00;;;;;10.83;64.30;101868.19;4957478;28;45273;-41
2021/11/16 10:23:29;;;;;;;;;22.75;19.75;;;;;10.86;64.12;101867.34;4956984;28;46164;-41
2021/11/16 10:25:56;;;;;;;;;28.75;24.50;;;;;10.86;63.91;101865.56;4957482;28;45311;-41
2021/11/16 10:28:22;;;;;;;;;18.75;17.00;;;;;10.89;64.05;101864.69;4957329;28;45407;-41
2021/11/16 10:30:48;;;;;;;;;25.00;19.50;;;;;10.88;63.67;101871.72;4957339;28;45532;-41
2021/11/16 10:33:16;;;;;;;;;26.25;19.75;;;;;10.92;63.64;101877.88;4957098;28;45319;-41
2021/11/16 10:35:48;;;;;;;;;24.50;20.00;;;;;10.94;63.91;101876.09;4957334;28;45231;-41
2021/11/16 10:38:31;;;;;;;;;23.25;18.50;;;;;10.95;63.93;101867.34;4957069;28;45256;-42
2021/11/16 10:41:01;;;;;;;;;24.00;18.50;;;;;10.98;63.77;101875.25;4955822;28;46262;-42
2021/11/16 10:43:43;;;;;;;;;19.75;18.00;;;;;10.98;63.88;101875.25;4960229;28;47103;-41
2021/11/16 10:46:11;;;;;;;;;19.00;17.50;;;;;10.98;63.77;101866.47;4969003;28;45315;-42
2021/11/16 10:48:39;;;;;;;;;20.75;19.75;;;;;11.00;63.84;101876.13;4991440;28;45308;-41
2021/11/16 10:51:08;;;;;;;;;26.00;19.00;;;;;11.00;63.81;101876.13;4978176;28;45233;-41
2021/11/16 10:53:34;;;;;;;;;25.25;22.25;;;;;11.02;63.66;101874.38;4970482;28;46162;-42
2021/11/16 10:56:02;;;;;;;;;21.75;19.50;;;;;11.01;63.76;101864.72;4960057;28;45351;-41
2021/11/16 10:58:38;;;;;;;;;22.00;20.00;;;;;11.04;63.74;101866.47;4960273;28;45325;-51
2021/11/16 11:01:11;;;;;;;;;21.50;19.00;;;;;11.04;63.61;101862.13;4959646;28;45414;-40
2021/11/16 11:03:42;;;;;;;;;20.75;18.50;;;;;11.06;63.57;101856.84;4962403;28;46841;-40
2021/11/16 11:06:11;;;;;;;;;25.50;21.50;;;;;11.07;63.57;101850.72;4969176;28;45305;-40
2021/11/16 11:08:44;;;;;;;;;21.50;20.00;;;;;11.09;63.31;101846.31;4965899;28;45319;-40
2021/11/16 11:11:19;;;;;;;;;21.00;17.75;;;;;11.08;63.63;101849.84;4971686;28;45400;-40
2021/11/16 11:13:46;;;;;;;;;18.50;18.00;;;;;11.12;63.52;101848.06;4975836;28;45617;-40
2021/11/16 11:16:16;;;;;;;;;25.75;21.75;;;;;11.13;63.32;101839.31;4967546;28;45415;-40
2021/11/16 11:18:47;;;;;;;;;21.50;19.50;;;;;11.12;63.59;101838.44;4968071;28;45291;-41
2021/11/16 11:21:27;;;;;;;;;23.50;20.25;;;;;11.10;63.34;101834.06;4968102;28;45334;-41
2021/11/16 11:23:56;;;;;;;;;19.75;17.50;;;;;11.09;63.35;101832.31;4970206;28;45496;-40
2021/11/16 11:26:50;;;;;;;;;25.75;21.50;;;;;11.08;63.46;101834.06;4972629;28;45438;-40
2021/11/16 11:31:57;;;;;;;;;18.00;16.25;;;;;11.07;63.50;101829.69;4968400;28;45245;-41
2021/11/16 11:34:59;;;;;;;;;18.50;18.25;;;;;11.05;63.32;101827.03;4968912;28;46442;-40
2021/11/16 11:37:32;;;;;;;;;17.00;13.00;;;;;11.04;63.22;101822.66;4964146;27;45355;-40
2021/11/16 11:40:13;;;;;;;;;19.50;18.00;;;;;11.01;63.17;101817.38;4965537;28;45452;-41